sensor_id;sensor_type;location;lat;lon;timestamp;temperature;humidity
24144;DHT22;12307;50.828;6.080;2023-04-03T00:01:59;18.40;56.30
24144;DHT22;12307;50.828;6.080;2023-04-03T00:04:24;18.30;56.40
24144;DHT22;12307;50.828;6.080;2023-04-03T00:06:50;18.20;56.40
24144;DHT22;12307;50.828;6.080;2023-04-03T00:09:17;18.20;56.50
24144;DHT22;12307;50.828;6.080;2023-04-03T00:11:42;18.10;56.70
24144;DHT22;12307;50.828;6.080;2023-04-03T00:14:09;18.10;56.80
24144;DHT22;12307;50.828;6.080;2023-04-03T00:16:35;18.10;56.90
24144;DHT22;12307;50.828;6.080;2023-04-03T00:19:01;18.00;56.90
24144;DHT22;12307;50.828;6.080;2023-04-03T00:21:26;18.00;57.00
24144;DHT22;12307;50.828;6.080;2023-04-03T00:23:52;18.00;57.10
24144;DHT22;12307;50.828;6.080;2023-04-03T00:26:18;18.00;57.10
24144;DHT22;12307;50.828;6.080;2023-04-03T00:28:43;18.00;57.20
24144;DHT22;12307;50.828;6.080;2023-04-03T00:31:10;18.00;57.20
24144;DHT22;12307;50.828;6.080;2023-04-03T00:33:39;18.00;57.20
24144;DHT22;12307;50.828;6.080;2023-04-03T00:36:06;17.90;57.10
24144;DHT22;12307;50.828;6.080;2023-04-03T00:38:32;18.00;57.10
24144;DHT22;12307;50.828;6.080;2023-04-03T00:40:57;18.00;57.10
24144;DHT22;12307;50.828;6.080;2023-04-03T00:43:25;18.00;57.00
24144;DHT22;12307;50.828;6.080;2023-04-03T00:45:53;18.10;57.00
24144;DHT22;12307;50.828;6.080;2023-04-03T00:48:24;18.10;56.90
24144;DHT22;12307;50.828;6.080;2023-04-03T00:50:50;18.20;56.90
24144;DHT22;12307;50.828;6.080;2023-04-03T00:53:19;18.20;56.90
24144;DHT22;12307;50.828;6.080;2023-04-03T00:55:48;18.30;56.90
24144;DHT22;12307;50.828;6.080;2023-04-03T00:58:15;18.30;56.70
24144;DHT22;12307;50.828;6.080;2023-04-03T01:00:44;18.40;56.60
24144;DHT22;12307;50.828;6.080;2023-04-03T01:03:11;18.40;56.50
24144;DHT22;12307;50.828;6.080;2023-04-03T01:05:39;18.40;56.40
24144;DHT22;12307;50.828;6.080;2023-04-03T01:08:05;18.40;56.20
24144;DHT22;12307;50.828;6.080;2023-04-03T01:10:31;18.40;56.10
24144;DHT22;12307;50.828;6.080;2023-04-03T01:12:57;18.30;56.00
24144;DHT22;12307;50.828;6.080;2023-04-03T01:15:27;18.30;56.00
24144;DHT22;12307;50.828;6.080;2023-04-03T01:17:57;18.20;56.00
24144;DHT22;12307;50.828;6.080;2023-04-03T01:20:57;18.20;56.10
24144;DHT22;12307;50.828;6.080;2023-04-03T01:23:32;18.10;56.20
24144;DHT22;12307;50.828;6.080;2023-04-03T01:26:02;18.10;56.40
24144;DHT22;12307;50.828;6.080;2023-04-03T01:28:31;18.00;56.50
24144;DHT22;12307;50.828;6.080;2023-04-03T01:31:02;18.00;56.60
24144;DHT22;12307;50.828;6.080;2023-04-03T01:33:33;18.00;56.70
24144;DHT22;12307;50.828;6.080;2023-04-03T01:35:59;17.90;56.70
24144;DHT22;12307;50.828;6.080;2023-04-03T01:38:25;17.90;56.80
24144;DHT22;12307;50.828;6.080;2023-04-03T01:40:51;17.90;56.90
24144;DHT22;12307;50.828;6.080;2023-04-03T01:43:17;17.90;56.90
24144;DHT22;12307;50.828;6.080;2023-04-03T01:45:42;17.90;56.90
24144;DHT22;12307;50.828;6.080;2023-04-03T01:48:08;17.90;56.90
24144;DHT22;12307;50.828;6.080;2023-04-03T01:50:35;17.90;56.90
24144;DHT22;12307;50.828;6.080;2023-04-03T01:53:01;17.90;56.90
24144;DHT22;12307;50.828;6.080;2023-04-03T01:55:26;17.90;56.80
24144;DHT22;12307;50.828;6.080;2023-04-03T01:57:52;17.90;56.80
24144;DHT22;12307;50.828;6.080;2023-04-03T02:00:18;18.00;56.80
24144;DHT22;12307;50.828;6.080;2023-04-03T02:02:44;18.10;56.80
24144;DHT22;12307;50.828;6.080;2023-04-03T02:05:10;18.10;56.70
24144;DHT22;12307;50.828;6.080;2023-04-03T02:07:37;18.10;56.70
24144;DHT22;12307;50.828;6.080;2023-04-03T02:10:04;18.20;56.70
24144;DHT22;12307;50.828;6.080;2023-04-03T02:12:30;18.30;56.60
24144;DHT22;12307;50.828;6.080;2023-04-03T02:14:58;18.30;56.40
24144;DHT22;12307;50.828;6.080;2023-04-03T02:17:24;18.30;56.30
24144;DHT22;12307;50.828;6.080;2023-04-03T02:19:49;18.30;56.20
24144;DHT22;12307;50.828;6.080;2023-04-03T02:22:15;18.40;56.00
24144;DHT22;12307;50.828;6.080;2023-04-03T02:24:42;18.30;55.90
24144;DHT22;12307;50.828;6.080;2023-04-03T02:27:08;18.30;55.90
24144;DHT22;12307;50.828;6.080;2023-04-03T02:29:34;18.20;55.90
24144;DHT22;12307;50.828;6.080;2023-04-03T02:31:59;18.10;55.90
24144;DHT22;12307;50.828;6.080;2023-04-03T02:34:25;18.10;56.00
24144;DHT22;12307;50.828;6.080;2023-04-03T02:36:51;18.00;56.10
24144;DHT22;12307;50.828;6.080;2023-04-03T02:39:16;18.00;56.20
24144;DHT22;12307;50.828;6.080;2023-04-03T02:41:43;17.90;56.40
24144;DHT22;12307;50.828;6.080;2023-04-03T02:44:10;17.80;56.40
24144;DHT22;12307;50.828;6.080;2023-04-03T02:46:36;17.80;56.60
24144;DHT22;12307;50.828;6.080;2023-04-03T02:49:03;17.80;56.70
24144;DHT22;12307;50.828;6.080;2023-04-03T02:51:29;17.80;56.70
24144;DHT22;12307;50.828;6.080;2023-04-03T02:53:54;17.80;56.80
24144;DHT22;12307;50.828;6.080;2023-04-03T02:56:20;17.80;56.80
24144;DHT22;12307;50.828;6.080;2023-04-03T02:58:48;17.80;56.80
24144;DHT22;12307;50.828;6.080;2023-04-03T03:01:14;17.80;56.80
24144;DHT22;12307;50.828;6.080;2023-04-03T03:03:40;17.80;56.70
24144;DHT22;12307;50.828;6.080;2023-04-03T03:06:08;17.80;56.80
24144;DHT22;12307;50.828;6.080;2023-04-03T03:08:35;17.80;56.70
24144;DHT22;12307;50.828;6.080;2023-04-03T03:11:01;17.90;56.70
24144;DHT22;12307;50.828;6.080;2023-04-03T03:13:27;17.90;56.70
24144;DHT22;12307;50.828;6.080;2023-04-03T03:15:54;18.00;56.70
24144;DHT22;12307;50.828;6.080;2023-04-03T03:18:20;18.00;56.60
24144;DHT22;12307;50.828;6.080;2023-04-03T03:20:46;18.10;56.60
24144;DHT22;12307;50.828;6.080;2023-04-03T03:23:11;18.10;56.50
24144;DHT22;12307;50.828;6.080;2023-04-03T03:25:38;18.20;56.50
24144;DHT22;12307;50.828;6.080;2023-04-03T03:28:04;18.30;56.40
24144;DHT22;12307;50.828;6.080;2023-04-03T03:30:29;18.30;56.30
24144;DHT22;12307;50.828;6.080;2023-04-03T03:32:56;18.30;56.10
24144;DHT22;12307;50.828;6.080;2023-04-03T03:35:22;18.40;56.10
24144;DHT22;12307;50.828;6.080;2023-04-03T03:37:48;18.40;55.90
24144;DHT22;12307;50.828;6.080;2023-04-03T03:40:14;18.40;55.70
24144;DHT22;12307;50.828;6.080;2023-04-03T03:42:40;18.40;55.50
24144;DHT22;12307;50.828;6.080;2023-04-03T03:45:06;18.40;55.40
24144;DHT22;12307;50.828;6.080;2023-04-03T03:47:32;18.30;55.30
24144;DHT22;12307;50.828;6.080;2023-04-03T03:50:00;18.30;55.30
24144;DHT22;12307;50.828;6.080;2023-04-03T03:52:25;18.20;55.40
24144;DHT22;12307;50.828;6.080;2023-04-03T03:54:51;18.10;55.40
24144;DHT22;12307;50.828;6.080;2023-04-03T03:57:17;18.00;55.50
24144;DHT22;12307;50.828;6.080;2023-04-03T03:59:43;18.00;55.70
24144;DHT22;12307;50.828;6.080;2023-04-03T04:02:09;17.90;55.80
24144;DHT22;12307;50.828;6.080;2023-04-03T04:04:35;17.80;56.00
24144;DHT22;12307;50.828;6.080;2023-04-03T04:07:03;17.80;56.20
24144;DHT22;12307;50.828;6.080;2023-04-03T04:09:29;17.80;56.30
24144;DHT22;12307;50.828;6.080;2023-04-03T04:11:54;17.70;56.30
24144;DHT22;12307;50.828;6.080;2023-04-03T04:14:20;17.70;56.40
24144;DHT22;12307;50.828;6.080;2023-04-03T04:16:46;17.70;56.50
24144;DHT22;12307;50.828;6.080;2023-04-03T04:19:12;17.70;56.40
24144;DHT22;12307;50.828;6.080;2023-04-03T04:21:38;17.70;56.40
24144;DHT22;12307;50.828;6.080;2023-04-03T04:24:06;17.80;56.50
24144;DHT22;12307;50.828;6.080;2023-04-03T04:26:32;17.80;56.50
24144;DHT22;12307;50.828;6.080;2023-04-03T04:28:58;17.90;56.50
24144;DHT22;12307;50.828;6.080;2023-04-03T04:31:23;18.00;56.50
24144;DHT22;12307;50.828;6.080;2023-04-03T04:33:49;18.00;56.40
24144;DHT22;12307;50.828;6.080;2023-04-03T04:36:15;18.10;56.30
24144;DHT22;12307;50.828;6.080;2023-04-03T04:38:41;18.10;56.20
24144;DHT22;12307;50.828;6.080;2023-04-03T04:41:08;18.20;56.10
24144;DHT22;12307;50.828;6.080;2023-04-03T04:43:34;18.30;56.00
24144;DHT22;12307;50.828;6.080;2023-04-03T04:46:01;18.30;56.00
24144;DHT22;12307;50.828;6.080;2023-04-03T04:48:27;18.30;55.80
24144;DHT22;12307;50.828;6.080;2023-04-03T04:50:53;18.40;55.70
24144;DHT22;12307;50.828;6.080;2023-04-03T04:53:18;18.40;55.60
24144;DHT22;12307;50.828;6.080;2023-04-03T04:55:44;18.40;55.40
24144;DHT22;12307;50.828;6.080;2023-04-03T04:58:11;18.40;55.20
24144;DHT22;12307;50.828;6.080;2023-04-03T05:00:37;18.40;55.00
24144;DHT22;12307;50.828;6.080;2023-04-03T05:03:03;18.30;54.90
24144;DHT22;12307;50.828;6.080;2023-04-03T05:05:28;18.30;55.00
24144;DHT22;12307;50.828;6.080;2023-04-03T05:07:54;18.20;55.00
24144;DHT22;12307;50.828;6.080;2023-04-03T05:10:20;18.10;55.10
24144;DHT22;12307;50.828;6.080;2023-04-03T05:12:46;18.00;55.20
24144;DHT22;12307;50.828;6.080;2023-04-03T05:15:13;17.90;55.30
24144;DHT22;12307;50.828;6.080;2023-04-03T05:17:38;17.90;55.50
24144;DHT22;12307;50.828;6.080;2023-04-03T05:20:05;17.80;55.60
24144;DHT22;12307;50.828;6.080;2023-04-03T05:22:31;17.80;55.80
24144;DHT22;12307;50.828;6.080;2023-04-03T05:24:57;17.80;55.90
24144;DHT22;12307;50.828;6.080;2023-04-03T05:27:22;17.70;55.90
24144;DHT22;12307;50.828;6.080;2023-04-03T05:29:54;17.80;56.00
24144;DHT22;12307;50.828;6.080;2023-04-03T05:32:21;17.70;56.00
24144;DHT22;12307;50.828;6.080;2023-04-03T05:34:46;17.70;56.00
24144;DHT22;12307;50.828;6.080;2023-04-03T05:37:12;17.80;56.00
24144;DHT22;12307;50.828;6.080;2023-04-03T05:39:38;17.80;56.10
24144;DHT22;12307;50.828;6.080;2023-04-03T05:42:06;17.80;56.00
24144;DHT22;12307;50.828;6.080;2023-04-03T05:44:32;17.90;56.00
24144;DHT22;12307;50.828;6.080;2023-04-03T05:46:58;17.90;56.00
24144;DHT22;12307;50.828;6.080;2023-04-03T05:49:25;18.00;56.00
24144;DHT22;12307;50.828;6.080;2023-04-03T05:51:51;18.10;55.90
24144;DHT22;12307;50.828;6.080;2023-04-03T05:54:19;18.20;55.90
24144;DHT22;12307;50.828;6.080;2023-04-03T05:56:45;18.20;55.80
24144;DHT22;12307;50.828;6.080;2023-04-03T05:59:11;18.30;55.70
24144;DHT22;12307;50.828;6.080;2023-04-03T06:01:37;18.30;55.50
24144;DHT22;12307;50.828;6.080;2023-04-03T06:04:03;18.40;55.40
24144;DHT22;12307;50.828;6.080;2023-04-03T06:06:44;18.40;55.30
24144;DHT22;12307;50.828;6.080;2023-04-03T06:09:11;18.40;55.00
24144;DHT22;12307;50.828;6.080;2023-04-03T06:11:37;18.40;55.00
24144;DHT22;12307;50.828;6.080;2023-04-03T06:14:02;18.30;54.80
24144;DHT22;12307;50.828;6.080;2023-04-03T06:16:28;18.30;54.90
24144;DHT22;12307;50.828;6.080;2023-04-03T06:18:54;18.20;54.90
24144;DHT22;12307;50.828;6.080;2023-04-03T06:21:20;18.20;55.00
24144;DHT22;12307;50.828;6.080;2023-04-03T06:23:47;18.10;55.00
24144;DHT22;12307;50.828;6.080;2023-04-03T06:26:13;18.00;55.10
24144;DHT22;12307;50.828;6.080;2023-04-03T06:28:39;18.00;55.20
24144;DHT22;12307;50.828;6.080;2023-04-03T06:31:05;18.00;55.30
24144;DHT22;12307;50.828;6.080;2023-04-03T06:33:30;18.00;55.50
24144;DHT22;12307;50.828;6.080;2023-04-03T06:35:57;17.90;55.50
24144;DHT22;12307;50.828;6.080;2023-04-03T06:38:23;18.00;55.60
24144;DHT22;12307;50.828;6.080;2023-04-03T06:40:51;18.00;55.60
24144;DHT22;12307;50.828;6.080;2023-04-03T06:43:17;18.00;55.50
24144;DHT22;12307;50.828;6.080;2023-04-03T06:45:43;18.00;55.30
24144;DHT22;12307;50.828;6.080;2023-04-03T06:48:08;18.00;55.00
24144;DHT22;12307;50.828;6.080;2023-04-03T06:50:34;18.00;54.60
24144;DHT22;12307;50.828;6.080;2023-04-03T06:53:00;18.00;54.20
24144;DHT22;12307;50.828;6.080;2023-04-03T06:55:26;18.10;53.80
24144;DHT22;12307;50.828;6.080;2023-04-03T06:57:53;18.10;53.40
24144;DHT22;12307;50.828;6.080;2023-04-03T07:00:20;18.10;53.20
24144;DHT22;12307;50.828;6.080;2023-04-03T07:02:45;18.10;53.20
24144;DHT22;12307;50.828;6.080;2023-04-03T07:05:11;18.20;53.20
24144;DHT22;12307;50.828;6.080;2023-04-03T07:07:37;18.30;53.10
24144;DHT22;12307;50.828;6.080;2023-04-03T07:10:04;18.50;53.00
24144;DHT22;12307;50.828;6.080;2023-04-03T07:12:30;18.60;52.80
24144;DHT22;12307;50.828;6.080;2023-04-03T07:14:58;18.80;52.60
24144;DHT22;12307;50.828;6.080;2023-04-03T07:17:23;19.00;52.40
24144;DHT22;12307;50.828;6.080;2023-04-03T07:19:50;19.20;52.20
24144;DHT22;12307;50.828;6.080;2023-04-03T07:22:16;19.30;52.10
24144;DHT22;12307;50.828;6.080;2023-04-03T07:24:42;19.50;52.00
24144;DHT22;12307;50.828;6.080;2023-04-03T07:27:08;19.60;51.90
24144;DHT22;12307;50.828;6.080;2023-04-03T07:29:36;19.70;51.80
24144;DHT22;12307;50.828;6.080;2023-04-03T07:32:03;19.80;51.70
24144;DHT22;12307;50.828;6.080;2023-04-03T07:34:29;20.00;51.70
24144;DHT22;12307;50.828;6.080;2023-04-03T07:36:55;20.10;51.70
24144;DHT22;12307;50.828;6.080;2023-04-03T07:39:22;20.20;51.60
24144;DHT22;12307;50.828;6.080;2023-04-03T07:41:47;20.30;51.50
24144;DHT22;12307;50.828;6.080;2023-04-03T07:44:13;20.40;51.40
24144;DHT22;12307;50.828;6.080;2023-04-03T07:46:39;20.50;51.30
24144;DHT22;12307;50.828;6.080;2023-04-03T07:49:07;20.70;51.30
24144;DHT22;12307;50.828;6.080;2023-04-03T07:51:33;20.80;51.80
24144;DHT22;12307;50.828;6.080;2023-04-03T07:53:59;21.00;51.10
24144;DHT22;12307;50.828;6.080;2023-04-03T07:56:25;21.20;50.90
24144;DHT22;12307;50.828;6.080;2023-04-03T07:58:50;21.40;50.80
24144;DHT22;12307;50.828;6.080;2023-04-03T08:01:16;21.60;50.50
24144;DHT22;12307;50.828;6.080;2023-04-03T08:03:42;21.80;50.10
24144;DHT22;12307;50.828;6.080;2023-04-03T08:06:10;22.00;49.80
24144;DHT22;12307;50.828;6.080;2023-04-03T08:08:36;22.30;49.40
24144;DHT22;12307;50.828;6.080;2023-04-03T08:11:02;22.60;49.10
24144;DHT22;12307;50.828;6.080;2023-04-03T08:13:30;22.90;48.70
24144;DHT22;12307;50.828;6.080;2023-04-03T08:15:56;23.20;48.30
24144;DHT22;12307;50.828;6.080;2023-04-03T08:18:23;23.50;47.80
24144;DHT22;12307;50.828;6.080;2023-04-03T08:20:50;23.80;47.50
24144;DHT22;12307;50.828;6.080;2023-04-03T08:23:17;24.20;47.10
24144;DHT22;12307;50.828;6.080;2023-04-03T08:25:43;24.50;46.50
24144;DHT22;12307;50.828;6.080;2023-04-03T08:28:10;24.80;46.00
24144;DHT22;12307;50.828;6.080;2023-04-03T08:30:38;25.20;45.50
24144;DHT22;12307;50.828;6.080;2023-04-03T08:33:04;25.50;44.90
24144;DHT22;12307;50.828;6.080;2023-04-03T08:35:30;25.80;44.40
24144;DHT22;12307;50.828;6.080;2023-04-03T08:37:56;26.10;43.90
24144;DHT22;12307;50.828;6.080;2023-04-03T08:40:23;26.40;43.50
24144;DHT22;12307;50.828;6.080;2023-04-03T08:42:57;26.80;43.10
24144;DHT22;12307;50.828;6.080;2023-04-03T08:45:35;27.10;42.70
24144;DHT22;12307;50.828;6.080;2023-04-03T08:48:05;27.40;42.30
24144;DHT22;12307;50.828;6.080;2023-04-03T08:50:37;27.70;42.10
24144;DHT22;12307;50.828;6.080;2023-04-03T08:53:06;28.00;41.80
24144;DHT22;12307;50.828;6.080;2023-04-03T08:55:41;28.30;41.40
24144;DHT22;12307;50.828;6.080;2023-04-03T08:58:11;28.50;40.90
24144;DHT22;12307;50.828;6.080;2023-04-03T09:00:41;28.60;40.70
24144;DHT22;12307;50.828;6.080;2023-04-03T09:03:13;28.60;40.60
24144;DHT22;12307;50.828;6.080;2023-04-03T09:05:42;28.00;40.60
24144;DHT22;12307;50.828;6.080;2023-04-03T09:08:18;27.70;41.00
24144;DHT22;12307;50.828;6.080;2023-04-03T09:10:49;27.70;40.90
24144;DHT22;12307;50.828;6.080;2023-04-03T09:13:24;28.10;40.70
24144;DHT22;12307;50.828;6.080;2023-04-03T09:15:52;28.60;40.20
24144;DHT22;12307;50.828;6.080;2023-04-03T09:18:21;29.00;39.80
24144;DHT22;12307;50.828;6.080;2023-04-03T09:20:56;29.40;39.50
24144;DHT22;12307;50.828;6.080;2023-04-03T09:23:28;29.70;39.10
24144;DHT22;12307;50.828;6.080;2023-04-03T09:26:01;30.00;38.70
24144;DHT22;12307;50.828;6.080;2023-04-03T09:28:32;30.30;38.40
24144;DHT22;12307;50.828;6.080;2023-04-03T09:31:01;30.50;38.20
24144;DHT22;12307;50.828;6.080;2023-04-03T09:33:29;30.80;38.10
24144;DHT22;12307;50.828;6.080;2023-04-03T09:35:55;30.80;37.70
24144;DHT22;12307;50.828;6.080;2023-04-03T09:38:22;30.40;37.90
24144;DHT22;12307;50.828;6.080;2023-04-03T09:40:49;30.00;38.20
24144;DHT22;12307;50.828;6.080;2023-04-03T09:43:28;29.80;38.20
24144;DHT22;12307;50.828;6.080;2023-04-03T09:45:56;30.00;38.10
24144;DHT22;12307;50.828;6.080;2023-04-03T09:48:50;30.30;37.90
24144;DHT22;12307;50.828;6.080;2023-04-03T09:51:16;30.70;37.50
24144;DHT22;12307;50.828;6.080;2023-04-03T09:53:43;31.00;37.30
24144;DHT22;12307;50.828;6.080;2023-04-03T09:56:20;31.30;37.10
24144;DHT22;12307;50.828;6.080;2023-04-03T09:58:49;31.50;36.70
24144;DHT22;12307;50.828;6.080;2023-04-03T10:01:26;31.70;36.60
24144;DHT22;12307;50.828;6.080;2023-04-03T10:04:05;31.90;36.30
24144;DHT22;12307;50.828;6.080;2023-04-03T10:06:33;32.00;35.90
24144;DHT22;12307;50.828;6.080;2023-04-03T10:09:05;32.20;36.00
24144;DHT22;12307;50.828;6.080;2023-04-03T10:11:31;32.30;35.90
24144;DHT22;12307;50.828;6.080;2023-04-03T10:13:59;32.40;35.80
24144;DHT22;12307;50.828;6.080;2023-04-03T10:16:29;32.50;35.60
24144;DHT22;12307;50.828;6.080;2023-04-03T10:19:29;32.50;35.40
24144;DHT22;12307;50.828;6.080;2023-04-03T10:21:59;32.70;35.10
24144;DHT22;12307;50.828;6.080;2023-04-03T10:24:35;32.70;35.10
24144;DHT22;12307;50.828;6.080;2023-04-03T10:27:05;32.80;35.00
24144;DHT22;12307;50.828;6.080;2023-04-03T10:29:40;32.80;35.00
24144;DHT22;12307;50.828;6.080;2023-04-03T10:32:25;32.80;34.80
24144;DHT22;12307;50.828;6.080;2023-04-03T10:35:00;32.80;34.80
24144;DHT22;12307;50.828;6.080;2023-04-03T10:37:30;32.80;34.80
24144;DHT22;12307;50.828;6.080;2023-04-03T10:40:20;32.80;34.80
24144;DHT22;12307;50.828;6.080;2023-04-03T10:42:52;32.80;34.80
24144;DHT22;12307;50.828;6.080;2023-04-03T10:45:23;32.80;34.80
24144;DHT22;12307;50.828;6.080;2023-04-03T10:47:58;32.80;34.80
24144;DHT22;12307;50.828;6.080;2023-04-03T10:50:36;32.80;34.70
24144;DHT22;12307;50.828;6.080;2023-04-03T10:53:10;32.70;34.60
24144;DHT22;12307;50.828;6.080;2023-04-03T10:55:42;32.70;34.60
24144;DHT22;12307;50.828;6.080;2023-04-03T10:58:20;32.60;34.60
24144;DHT22;12307;50.828;6.080;2023-04-03T11:00:48;32.60;34.60
24144;DHT22;12307;50.828;6.080;2023-04-03T11:03:24;32.50;34.30
24144;DHT22;12307;50.828;6.080;2023-04-03T11:05:53;32.40;33.70
24144;DHT22;12307;50.828;6.080;2023-04-03T11:08:26;32.30;33.60
24144;DHT22;12307;50.828;6.080;2023-04-03T11:10:54;32.20;33.70
24144;DHT22;12307;50.828;6.080;2023-04-03T11:13:24;32.30;34.00
24144;DHT22;12307;50.828;6.080;2023-04-03T11:15:53;32.20;34.00
24144;DHT22;12307;50.828;6.080;2023-04-03T11:18:21;32.20;34.10
24144;DHT22;12307;50.828;6.080;2023-04-03T11:20:56;32.10;34.10
24144;DHT22;12307;50.828;6.080;2023-04-03T11:23:25;32.10;34.20
24144;DHT22;12307;50.828;6.080;2023-04-03T11:25:54;32.00;34.40
24144;DHT22;12307;50.828;6.080;2023-04-03T11:28:22;31.90;34.60
24144;DHT22;12307;50.828;6.080;2023-04-03T11:30:51;31.80;34.80
24144;DHT22;12307;50.828;6.080;2023-04-03T11:33:39;31.70;35.00
24144;DHT22;12307;50.828;6.080;2023-04-03T11:36:10;31.60;35.80
24144;DHT22;12307;50.828;6.080;2023-04-03T11:38:42;31.50;35.30
24144;DHT22;12307;50.828;6.080;2023-04-03T11:41:09;31.40;35.50
24144;DHT22;12307;50.828;6.080;2023-04-03T11:43:41;31.30;35.60
24144;DHT22;12307;50.828;6.080;2023-04-03T11:46:08;31.20;35.80
24144;DHT22;12307;50.828;6.080;2023-04-03T11:48:48;31.10;35.90
24144;DHT22;12307;50.828;6.080;2023-04-03T11:51:40;31.00;36.00
24144;DHT22;12307;50.828;6.080;2023-04-03T11:54:47;30.90;36.30
24144;DHT22;12307;50.828;6.080;2023-04-03T11:57:44;30.70;36.50
24144;DHT22;12307;50.828;6.080;2023-04-03T12:04:05;30.30;37.00
24144;DHT22;12307;50.828;6.080;2023-04-03T12:07:12;30.10;37.30
24144;DHT22;12307;50.828;6.080;2023-04-03T12:10:18;29.80;37.20
24144;DHT22;12307;50.828;6.080;2023-04-03T12:12:56;29.50;37.00
24144;DHT22;12307;50.828;6.080;2023-04-03T12:19:01;28.90;36.90
24144;DHT22;12307;50.828;6.080;2023-04-03T12:22:04;28.50;36.90
24144;DHT22;12307;50.828;6.080;2023-04-03T12:24:33;28.10;37.00
24144;DHT22;12307;50.828;6.080;2023-04-03T12:27:03;27.80;37.20
24144;DHT22;12307;50.828;6.080;2023-04-03T12:29:34;27.50;37.40
24144;DHT22;12307;50.828;6.080;2023-04-03T12:32:15;27.20;37.50
24144;DHT22;12307;50.828;6.080;2023-04-03T12:34:56;26.90;37.70
24144;DHT22;12307;50.828;6.080;2023-04-03T12:37:38;26.60;37.80
24144;DHT22;12307;50.828;6.080;2023-04-03T12:40:10;26.20;38.10
24144;DHT22;12307;50.828;6.080;2023-04-03T12:42:56;25.90;38.40
24144;DHT22;12307;50.828;6.080;2023-04-03T12:45:27;25.60;38.60
24144;DHT22;12307;50.828;6.080;2023-04-03T12:47:54;25.30;38.90
24144;DHT22;12307;50.828;6.080;2023-04-03T12:50:27;25.10;39.20
24144;DHT22;12307;50.828;6.080;2023-04-03T12:52:58;24.90;39.50
24144;DHT22;12307;50.828;6.080;2023-04-03T12:55:25;24.70;39.80
24144;DHT22;12307;50.828;6.080;2023-04-03T12:57:52;24.50;40.00
24144;DHT22;12307;50.828;6.080;2023-04-03T13:00:32;24.40;40.20
24144;DHT22;12307;50.828;6.080;2023-04-03T13:02:59;24.20;40.40
24144;DHT22;12307;50.828;6.080;2023-04-03T13:05:27;24.10;40.50
24144;DHT22;12307;50.828;6.080;2023-04-03T13:07:58;24.00;40.70
24144;DHT22;12307;50.828;6.080;2023-04-03T13:10:24;23.90;41.60
24144;DHT22;12307;50.828;6.080;2023-04-03T13:12:52;23.80;41.00
24144;DHT22;12307;50.828;6.080;2023-04-03T13:15:24;23.60;41.10
24144;DHT22;12307;50.828;6.080;2023-04-03T13:17:51;23.60;41.10
24144;DHT22;12307;50.828;6.080;2023-04-03T13:20:21;23.40;41.20
24144;DHT22;12307;50.828;6.080;2023-04-03T13:22:54;23.30;41.30
24144;DHT22;12307;50.828;6.080;2023-04-03T13:25:23;23.20;41.50
24144;DHT22;12307;50.828;6.080;2023-04-03T13:27:50;23.10;41.60
24144;DHT22;12307;50.828;6.080;2023-04-03T13:30:21;23.00;41.50
24144;DHT22;12307;50.828;6.080;2023-04-03T13:32:49;22.90;41.50
24144;DHT22;12307;50.828;6.080;2023-04-03T13:35:32;22.90;41.60
24144;DHT22;12307;50.828;6.080;2023-04-03T13:38:02;22.80;41.60
24144;DHT22;12307;50.828;6.080;2023-04-03T13:40:28;22.70;41.60
24144;DHT22;12307;50.828;6.080;2023-04-03T13:43:04;22.70;41.70
24144;DHT22;12307;50.828;6.080;2023-04-03T13:45:31;22.60;41.70
24144;DHT22;12307;50.828;6.080;2023-04-03T13:48:10;22.60;41.70
24144;DHT22;12307;50.828;6.080;2023-04-03T13:50:56;22.50;41.70
24144;DHT22;12307;50.828;6.080;2023-04-03T13:53:24;22.40;41.80
24144;DHT22;12307;50.828;6.080;2023-04-03T13:55:56;22.40;42.60
24144;DHT22;12307;50.828;6.080;2023-04-03T13:58:24;22.30;42.00
24144;DHT22;12307;50.828;6.080;2023-04-03T14:00:52;22.20;41.90
24144;DHT22;12307;50.828;6.080;2023-04-03T14:03:21;22.20;42.00
24144;DHT22;12307;50.828;6.080;2023-04-03T14:05:47;22.10;42.10
24144;DHT22;12307;50.828;6.080;2023-04-03T14:08:13;22.00;42.10
24144;DHT22;12307;50.828;6.080;2023-04-03T14:10:40;22.00;42.30
24144;DHT22;12307;50.828;6.080;2023-04-03T14:13:10;21.90;42.30
24144;DHT22;12307;50.828;6.080;2023-04-03T14:15:37;21.80;42.50
24144;DHT22;12307;50.828;6.080;2023-04-03T14:18:03;21.70;42.50
24144;DHT22;12307;50.828;6.080;2023-04-03T14:20:28;21.70;42.70
24144;DHT22;12307;50.828;6.080;2023-04-03T14:22:54;21.60;42.80
24144;DHT22;12307;50.828;6.080;2023-04-03T14:25:21;21.60;42.90
24144;DHT22;12307;50.828;6.080;2023-04-03T14:27:52;21.50;42.90
24144;DHT22;12307;50.828;6.080;2023-04-03T14:30:21;21.50;43.00
24144;DHT22;12307;50.828;6.080;2023-04-03T14:32:47;21.50;43.20
24144;DHT22;12307;50.828;6.080;2023-04-03T14:35:13;21.40;43.20
24144;DHT22;12307;50.828;6.080;2023-04-03T14:37:40;21.40;43.30
24144;DHT22;12307;50.828;6.080;2023-04-03T14:40:07;21.40;43.40
24144;DHT22;12307;50.828;6.080;2023-04-03T14:42:35;21.30;43.50
24144;DHT22;12307;50.828;6.080;2023-04-03T14:45:05;21.30;43.60
24144;DHT22;12307;50.828;6.080;2023-04-03T14:47:32;21.30;43.60
24144;DHT22;12307;50.828;6.080;2023-04-03T14:49:58;21.30;43.70
24144;DHT22;12307;50.828;6.080;2023-04-03T14:52:27;21.20;43.70
24144;DHT22;12307;50.828;6.080;2023-04-03T14:54:54;21.20;43.90
24144;DHT22;12307;50.828;6.080;2023-04-03T14:57:22;21.20;44.00
24144;DHT22;12307;50.828;6.080;2023-04-03T14:59:49;21.10;44.00
24144;DHT22;12307;50.828;6.080;2023-04-03T15:02:28;21.10;44.10
24144;DHT22;12307;50.828;6.080;2023-04-03T15:04:55;21.10;44.30
24144;DHT22;12307;50.828;6.080;2023-04-03T15:07:21;21.00;44.30
24144;DHT22;12307;50.828;6.080;2023-04-03T15:09:48;21.00;44.50
24144;DHT22;12307;50.828;6.080;2023-04-03T15:12:14;20.90;45.30
24144;DHT22;12307;50.828;6.080;2023-04-03T15:14:40;20.90;44.70
24144;DHT22;12307;50.828;6.080;2023-04-03T15:17:08;20.90;44.90
24144;DHT22;12307;50.828;6.080;2023-04-03T15:19:38;20.80;45.00
24144;DHT22;12307;50.828;6.080;2023-04-03T15:22:04;20.80;45.10
24144;DHT22;12307;50.828;6.080;2023-04-03T15:24:30;20.70;45.20
24144;DHT22;12307;50.828;6.080;2023-04-03T15:26:56;20.70;45.30
24144;DHT22;12307;50.828;6.080;2023-04-03T15:29:21;20.70;45.40
24144;DHT22;12307;50.828;6.080;2023-04-03T15:31:47;20.60;45.40
24144;DHT22;12307;50.828;6.080;2023-04-03T15:34:15;20.60;45.40
24144;DHT22;12307;50.828;6.080;2023-04-03T15:36:42;20.60;45.60
24144;DHT22;12307;50.828;6.080;2023-04-03T15:39:08;20.50;45.60
24144;DHT22;12307;50.828;6.080;2023-04-03T15:41:34;20.50;45.70
24144;DHT22;12307;50.828;6.080;2023-04-03T15:43:59;20.50;45.80
24144;DHT22;12307;50.828;6.080;2023-04-03T15:46:25;20.50;45.90
24144;DHT22;12307;50.828;6.080;2023-04-03T15:48:51;20.40;45.90